sensor_id;sensor_type;location;lat;lon;timestamp;P1;durP1;ratioP1;P2;durP2;ratioP2
59824;SDS011;45703;50.898;6.054;2023-04-06T00:01:56;17.65;;;9.52;;
59824;SDS011;45703;50.898;6.054;2023-04-06T00:04:22;16.20;;;8.70;;
59824;SDS011;45703;50.898;6.054;2023-04-06T00:06:47;16.42;;;9.00;;
59824;SDS011;45703;50.898;6.054;2023-04-06T00:09:13;17.98;;;9.60;;
59824;SDS011;45703;50.898;6.054;2023-04-06T00:11:38;17.65;;;9.13;;
59824;SDS011;45703;50.898;6.054;2023-04-06T00:14:04;16.05;;;9.05;;
59824;SDS011;45703;50.898;6.054;2023-04-06T00:16:29;16.70;;;9.20;;
59824;SDS011;45703;50.898;6.054;2023-04-06T00:18:55;15.70;;;9.50;;
59824;SDS011;45703;50.898;6.054;2023-04-06T00:21:20;18.27;;;8.75;;
59824;SDS011;45703;50.898;6.054;2023-04-06T00:23:45;16.45;;;9.68;;
59824;SDS011;45703;50.898;6.054;2023-04-06T00:26:11;17.70;;;10.27;;
59824;SDS011;45703;50.898;6.054;2023-04-06T00:28:37;16.15;;;9.00;;
59824;SDS011;45703;50.898;6.054;2023-04-06T00:31:02;18.35;;;8.95;;
59824;SDS011;45703;50.898;6.054;2023-04-06T00:33:28;17.25;;;9.48;;
59824;SDS011;45703;50.898;6.054;2023-04-06T00:35:53;16.13;;;8.93;;
59824;SDS011;45703;50.898;6.054;2023-04-06T00:38:19;17.05;;;8.75;;
59824;SDS011;45703;50.898;6.054;2023-04-06T00:40:44;16.40;;;9.40;;
59824;SDS011;45703;50.898;6.054;2023-04-06T00:43:11;15.57;;;9.02;;
59824;SDS011;45703;50.898;6.054;2023-04-06T00:45:40;15.57;;;9.05;;
59824;SDS011;45703;50.898;6.054;2023-04-06T00:48:06;16.95;;;8.88;;
59824;SDS011;45703;50.898;6.054;2023-04-06T00:50:33;16.85;;;9.30;;
59824;SDS011;45703;50.898;6.054;2023-04-06T00:52:59;17.50;;;9.68;;
59824;SDS011;45703;50.898;6.054;2023-04-06T00:55:28;15.57;;;8.57;;
59824;SDS011;45703;50.898;6.054;2023-04-06T00:57:54;18.23;;;8.98;;
59824;SDS011;45703;50.898;6.054;2023-04-06T01:00:21;17.33;;;9.02;;
59824;SDS011;45703;50.898;6.054;2023-04-06T01:02:47;17.08;;;9.15;;
59824;SDS011;45703;50.898;6.054;2023-04-06T01:05:13;16.88;;;9.98;;
59824;SDS011;45703;50.898;6.054;2023-04-06T01:07:38;17.35;;;9.80;;
59824;SDS011;45703;50.898;6.054;2023-04-06T01:10:04;15.77;;;9.05;;
59824;SDS011;45703;50.898;6.054;2023-04-06T01:12:30;14.90;;;9.15;;
59824;SDS011;45703;50.898;6.054;2023-04-06T01:14:55;15.75;;;8.23;;
59824;SDS011;45703;50.898;6.054;2023-04-06T01:17:21;17.30;;;9.02;;
59824;SDS011;45703;50.898;6.054;2023-04-06T01:19:47;16.10;;;9.57;;
59824;SDS011;45703;50.898;6.054;2023-04-06T01:22:17;18.13;;;9.65;;
59824;SDS011;45703;50.898;6.054;2023-04-06T01:24:43;15.10;;;8.77;;
59824;SDS011;45703;50.898;6.054;2023-04-06T01:27:10;16.55;;;9.32;;
59824;SDS011;45703;50.898;6.054;2023-04-06T01:29:35;16.05;;;9.00;;
59824;SDS011;45703;50.898;6.054;2023-04-06T01:32:01;15.80;;;8.85;;
59824;SDS011;45703;50.898;6.054;2023-04-06T01:34:26;15.80;;;8.93;;
59824;SDS011;45703;50.898;6.054;2023-04-06T01:36:52;16.52;;;8.60;;
59824;SDS011;45703;50.898;6.054;2023-04-06T01:39:17;17.50;;;9.10;;
59824;SDS011;45703;50.898;6.054;2023-04-06T01:41:44;15.88;;;9.02;;
59824;SDS011;45703;50.898;6.054;2023-04-06T01:44:09;12.90;;;7.53;;
59824;SDS011;45703;50.898;6.054;2023-04-06T01:46:35;17.60;;;9.48;;
59824;SDS011;45703;50.898;6.054;2023-04-06T01:49:00;16.27;;;9.30;;
59824;SDS011;45703;50.898;6.054;2023-04-06T01:51:26;17.45;;;8.73;;
59824;SDS011;45703;50.898;6.054;2023-04-06T01:53:51;15.57;;;8.20;;
59824;SDS011;45703;50.898;6.054;2023-04-06T01:56:17;18.38;;;9.32;;
59824;SDS011;45703;50.898;6.054;2023-04-06T01:58:42;14.38;;;7.88;;
59824;SDS011;45703;50.898;6.054;2023-04-06T02:01:08;15.23;;;8.98;;
59824;SDS011;45703;50.898;6.054;2023-04-06T02:03:33;15.30;;;8.18;;
59824;SDS011;45703;50.898;6.054;2023-04-06T02:05:59;14.82;;;8.32;;
59824;SDS011;45703;50.898;6.054;2023-04-06T02:08:24;14.98;;;8.10;;
59824;SDS011;45703;50.898;6.054;2023-04-06T02:10:50;13.80;;;8.00;;
59824;SDS011;45703;50.898;6.054;2023-04-06T02:13:15;14.65;;;8.32;;
59824;SDS011;45703;50.898;6.054;2023-04-06T02:15:41;14.43;;;8.27;;
59824;SDS011;45703;50.898;6.054;2023-04-06T02:18:06;16.30;;;9.05;;
59824;SDS011;45703;50.898;6.054;2023-04-06T02:20:31;16.00;;;8.70;;
59824;SDS011;45703;50.898;6.054;2023-04-06T02:22:58;15.35;;;8.88;;
59824;SDS011;45703;50.898;6.054;2023-04-06T02:25:25;14.45;;;8.45;;
59824;SDS011;45703;50.898;6.054;2023-04-06T02:27:50;14.75;;;7.80;;
59824;SDS011;45703;50.898;6.054;2023-04-06T02:30:15;19.63;;;9.07;;
59824;SDS011;45703;50.898;6.054;2023-04-06T02:32:41;17.17;;;8.27;;
59824;SDS011;45703;50.898;6.054;2023-04-06T02:35:06;14.60;;;7.93;;
59824;SDS011;45703;50.898;6.054;2023-04-06T02:37:32;15.15;;;8.52;;
59824;SDS011;45703;50.898;6.054;2023-04-06T02:39:57;15.10;;;8.38;;
59824;SDS011;45703;50.898;6.054;2023-04-06T02:42:23;14.93;;;8.20;;
59824;SDS011;45703;50.898;6.054;2023-04-06T02:44:48;14.48;;;7.80;;
59824;SDS011;45703;50.898;6.054;2023-04-06T02:47:14;15.93;;;8.20;;
59824;SDS011;45703;50.898;6.054;2023-04-06T02:49:39;16.10;;;8.30;;
59824;SDS011;45703;50.898;6.054;2023-04-06T02:52:05;14.38;;;7.68;;
59824;SDS011;45703;50.898;6.054;2023-04-06T02:54:30;14.93;;;8.18;;
59824;SDS011;45703;50.898;6.054;2023-04-06T02:56:56;14.55;;;7.65;;
59824;SDS011;45703;50.898;6.054;2023-04-06T02:59:21;15.00;;;8.15;;
59824;SDS011;45703;50.898;6.054;2023-04-06T03:01:47;13.23;;;7.43;;
59824;SDS011;45703;50.898;6.054;2023-04-06T03:04:12;16.08;;;8.20;;
59824;SDS011;45703;50.898;6.054;2023-04-06T03:06:38;15.23;;;8.13;;
59824;SDS011;45703;50.898;6.054;2023-04-06T03:09:03;16.13;;;8.18;;
59824;SDS011;45703;50.898;6.054;2023-04-06T03:11:29;14.82;;;8.23;;
59824;SDS011;45703;50.898;6.054;2023-04-06T03:13:54;14.48;;;8.50;;
59824;SDS011;45703;50.898;6.054;2023-04-06T03:16:20;13.75;;;7.55;;
59824;SDS011;45703;50.898;6.054;2023-04-06T03:18:45;13.98;;;7.75;;
59824;SDS011;45703;50.898;6.054;2023-04-06T03:21:12;14.40;;;7.78;;
59824;SDS011;45703;50.898;6.054;2023-04-06T03:23:37;17.75;;;8.38;;
59824;SDS011;45703;50.898;6.054;2023-04-06T03:26:03;14.55;;;7.90;;
59824;SDS011;45703;50.898;6.054;2023-04-06T03:28:29;13.38;;;7.47;;
59824;SDS011;45703;50.898;6.054;2023-04-06T03:30:54;14.80;;;8.00;;
59824;SDS011;45703;50.898;6.054;2023-04-06T03:33:20;16.42;;;9.10;;
59824;SDS011;45703;50.898;6.054;2023-04-06T03:35:45;14.98;;;8.60;;
59824;SDS011;45703;50.898;6.054;2023-04-06T03:38:10;16.65;;;8.75;;
59824;SDS011;45703;50.898;6.054;2023-04-06T03:40:36;15.57;;;7.88;;
59824;SDS011;45703;50.898;6.054;2023-04-06T03:43:01;14.77;;;8.00;;
59824;SDS011;45703;50.898;6.054;2023-04-06T03:45:27;15.27;;;8.35;;
59824;SDS011;45703;50.898;6.054;2023-04-06T03:47:52;14.00;;;8.05;;
59824;SDS011;45703;50.898;6.054;2023-04-06T03:50:17;15.75;;;8.77;;
59824;SDS011;45703;50.898;6.054;2023-04-06T03:52:43;15.85;;;8.35;;
59824;SDS011;45703;50.898;6.054;2023-04-06T03:55:08;15.60;;;8.23;;
59824;SDS011;45703;50.898;6.054;2023-04-06T03:57:34;14.98;;;8.32;;
59824;SDS011;45703;50.898;6.054;2023-04-06T03:59:59;13.60;;;7.72;;
59824;SDS011;45703;50.898;6.054;2023-04-06T04:02:25;16.38;;;8.43;;
59824;SDS011;45703;50.898;6.054;2023-04-06T04:04:50;14.05;;;7.25;;
59824;SDS011;45703;50.898;6.054;2023-04-06T04:07:16;13.50;;;7.18;;
59824;SDS011;45703;50.898;6.054;2023-04-06T04:09:42;13.82;;;7.30;;
59824;SDS011;45703;50.898;6.054;2023-04-06T04:12:07;17.58;;;8.50;;
59824;SDS011;45703;50.898;6.054;2023-04-06T04:14:33;17.55;;;8.60;;
59824;SDS011;45703;50.898;6.054;2023-04-06T04:16:58;17.05;;;7.57;;
59824;SDS011;45703;50.898;6.054;2023-04-06T04:19:23;15.63;;;7.82;;
59824;SDS011;45703;50.898;6.054;2023-04-06T04:21:49;12.38;;;7.25;;
59824;SDS011;45703;50.898;6.054;2023-04-06T04:24:14;13.60;;;7.00;;
59824;SDS011;45703;50.898;6.054;2023-04-06T04:26:40;14.25;;;8.02;;
59824;SDS011;45703;50.898;6.054;2023-04-06T04:29:08;14.90;;;7.65;;
59824;SDS011;45703;50.898;6.054;2023-04-06T04:31:34;13.32;;;6.75;;
59824;SDS011;45703;50.898;6.054;2023-04-06T04:34:00;17.50;;;8.25;;
59824;SDS011;45703;50.898;6.054;2023-04-06T04:36:26;16.15;;;8.23;;
59824;SDS011;45703;50.898;6.054;2023-04-06T04:38:52;15.60;;;8.32;;
59824;SDS011;45703;50.898;6.054;2023-04-06T04:41:17;14.25;;;7.38;;
59824;SDS011;45703;50.898;6.054;2023-04-06T04:43:43;13.57;;;7.72;;
59824;SDS011;45703;50.898;6.054;2023-04-06T04:46:09;14.32;;;7.90;;
59824;SDS011;45703;50.898;6.054;2023-04-06T04:48:35;15.55;;;7.57;;
59824;SDS011;45703;50.898;6.054;2023-04-06T04:51:00;14.77;;;7.65;;
59824;SDS011;45703;50.898;6.054;2023-04-06T04:53:26;15.20;;;8.20;;
59824;SDS011;45703;50.898;6.054;2023-04-06T04:55:52;14.70;;;7.90;;
59824;SDS011;45703;50.898;6.054;2023-04-06T04:58:17;16.20;;;8.18;;
59824;SDS011;45703;50.898;6.054;2023-04-06T05:00:44;14.43;;;7.38;;
59824;SDS011;45703;50.898;6.054;2023-04-06T05:03:14;17.20;;;8.43;;
59824;SDS011;45703;50.898;6.054;2023-04-06T05:05:45;14.25;;;8.20;;
59824;SDS011;45703;50.898;6.054;2023-04-06T05:08:11;15.73;;;7.95;;
59824;SDS011;45703;50.898;6.054;2023-04-06T05:10:37;14.02;;;7.47;;
59824;SDS011;45703;50.898;6.054;2023-04-06T05:13:02;13.45;;;7.18;;
59824;SDS011;45703;50.898;6.054;2023-04-06T05:15:28;13.85;;;7.85;;
59824;SDS011;45703;50.898;6.054;2023-04-06T05:17:53;12.98;;;7.47;;
59824;SDS011;45703;50.898;6.054;2023-04-06T05:20:21;14.48;;;7.22;;
59824;SDS011;45703;50.898;6.054;2023-04-06T05:22:47;14.98;;;8.45;;
59824;SDS011;45703;50.898;6.054;2023-04-06T05:25:12;14.48;;;7.68;;
59824;SDS011;45703;50.898;6.054;2023-04-06T05:27:38;14.88;;;7.65;;
59824;SDS011;45703;50.898;6.054;2023-04-06T05:30:05;14.48;;;8.27;;
59824;SDS011;45703;50.898;6.054;2023-04-06T05:32:31;12.93;;;7.05;;
59824;SDS011;45703;50.898;6.054;2023-04-06T05:34:56;16.35;;;7.45;;
59824;SDS011;45703;50.898;6.054;2023-04-06T05:37:22;17.02;;;7.80;;
59824;SDS011;45703;50.898;6.054;2023-04-06T05:39:47;14.02;;;7.80;;
59824;SDS011;45703;50.898;6.054;2023-04-06T05:42:13;15.02;;;7.88;;
59824;SDS011;45703;50.898;6.054;2023-04-06T05:44:38;15.55;;;7.88;;
59824;SDS011;45703;50.898;6.054;2023-04-06T05:47:04;12.75;;;7.35;;
59824;SDS011;45703;50.898;6.054;2023-04-06T05:49:29;13.45;;;7.53;;
59824;SDS011;45703;50.898;6.054;2023-04-06T05:51:55;14.60;;;7.25;;
59824;SDS011;45703;50.898;6.054;2023-04-06T05:54:20;14.63;;;7.65;;
59824;SDS011;45703;50.898;6.054;2023-04-06T05:56:46;13.02;;;7.50;;
59824;SDS011;45703;50.898;6.054;2023-04-06T05:59:11;15.80;;;7.95;;
59824;SDS011;45703;50.898;6.054;2023-04-06T06:01:37;15.63;;;8.45;;
59824;SDS011;45703;50.898;6.054;2023-04-06T06:04:02;13.57;;;7.72;;
59824;SDS011;45703;50.898;6.054;2023-04-06T06:06:28;15.93;;;8.25;;
59824;SDS011;45703;50.898;6.054;2023-04-06T06:08:57;14.35;;;7.97;;
59824;SDS011;45703;50.898;6.054;2023-04-06T06:11:27;14.83;;;7.77;;
59824;SDS011;45703;50.898;6.054;2023-04-06T06:13:53;15.90;;;8.63;;
59824;SDS011;45703;50.898;6.054;2023-04-06T06:16:18;15.52;;;7.68;;
59824;SDS011;45703;50.898;6.054;2023-04-06T06:18:44;16.23;;;8.50;;
59824;SDS011;45703;50.898;6.054;2023-04-06T06:21:09;16.77;;;8.88;;
59824;SDS011;45703;50.898;6.054;2023-04-06T06:23:37;16.08;;;8.75;;
59824;SDS011;45703;50.898;6.054;2023-04-06T06:26:03;17.02;;;8.50;;
59824;SDS011;45703;50.898;6.054;2023-04-06T06:28:28;15.52;;;8.48;;
59824;SDS011;45703;50.898;6.054;2023-04-06T06:30:53;15.93;;;8.80;;
59824;SDS011;45703;50.898;6.054;2023-04-06T06:33:19;17.98;;;9.43;;
59824;SDS011;45703;50.898;6.054;2023-04-06T06:35:44;15.63;;;9.32;;
59824;SDS011;45703;50.898;6.054;2023-04-06T06:38:10;17.42;;;9.38;;
59824;SDS011;45703;50.898;6.054;2023-04-06T06:40:35;13.75;;;7.40;;
59824;SDS011;45703;50.898;6.054;2023-04-06T06:43:01;17.20;;;9.07;;
59824;SDS011;45703;50.898;6.054;2023-04-06T06:45:27;16.23;;;8.23;;
59824;SDS011;45703;50.898;6.054;2023-04-06T06:47:54;16.10;;;8.55;;
59824;SDS011;45703;50.898;6.054;2023-04-06T06:50:19;13.90;;;8.13;;
59824;SDS011;45703;50.898;6.054;2023-04-06T06:52:45;14.65;;;7.85;;
59824;SDS011;45703;50.898;6.054;2023-04-06T06:55:10;13.45;;;7.22;;
59824;SDS011;45703;50.898;6.054;2023-04-06T06:57:36;14.70;;;7.60;;
59824;SDS011;45703;50.898;6.054;2023-04-06T07:00:02;13.57;;;6.85;;
59824;SDS011;45703;50.898;6.054;2023-04-06T07:02:30;13.50;;;7.20;;
59824;SDS011;45703;50.898;6.054;2023-04-06T07:04:55;14.95;;;7.70;;
59824;SDS011;45703;50.898;6.054;2023-04-06T07:07:21;15.00;;;7.32;;
59824;SDS011;45703;50.898;6.054;2023-04-06T07:09:46;12.93;;;7.03;;
59824;SDS011;45703;50.898;6.054;2023-04-06T07:12:12;13.90;;;7.28;;
59824;SDS011;45703;50.898;6.054;2023-04-06T07:14:37;12.32;;;6.63;;
59824;SDS011;45703;50.898;6.054;2023-04-06T07:17:03;13.10;;;7.10;;
59824;SDS011;45703;50.898;6.054;2023-04-06T07:19:28;12.23;;;6.55;;
59824;SDS011;45703;50.898;6.054;2023-04-06T07:21:53;11.60;;;6.47;;
59824;SDS011;45703;50.898;6.054;2023-04-06T07:24:19;12.35;;;6.60;;
59824;SDS011;45703;50.898;6.054;2023-04-06T07:26:44;11.80;;;7.00;;
59824;SDS011;45703;50.898;6.054;2023-04-06T07:29:10;14.63;;;7.20;;
59824;SDS011;45703;50.898;6.054;2023-04-06T07:31:36;13.00;;;7.25;;
59824;SDS011;45703;50.898;6.054;2023-04-06T07:34:01;14.07;;;6.60;;
59824;SDS011;45703;50.898;6.054;2023-04-06T07:36:29;13.27;;;6.50;;
59824;SDS011;45703;50.898;6.054;2023-04-06T07:38:54;12.95;;;6.40;;
59824;SDS011;45703;50.898;6.054;2023-04-06T07:41:19;13.65;;;7.28;;
59824;SDS011;45703;50.898;6.054;2023-04-06T07:43:45;12.55;;;7.13;;
59824;SDS011;45703;50.898;6.054;2023-04-06T07:46:10;14.90;;;6.85;;
59824;SDS011;45703;50.898;6.054;2023-04-06T07:48:36;11.40;;;5.72;;
59824;SDS011;45703;50.898;6.054;2023-04-06T07:51:03;16.50;;;7.30;;
59824;SDS011;45703;50.898;6.054;2023-04-06T07:53:29;13.23;;;6.55;;
59824;SDS011;45703;50.898;6.054;2023-04-06T07:55:55;14.15;;;7.15;;
59824;SDS011;45703;50.898;6.054;2023-04-06T07:58:21;12.70;;;6.68;;
59824;SDS011;45703;50.898;6.054;2023-04-06T08:00:47;13.55;;;6.20;;
59824;SDS011;45703;50.898;6.054;2023-04-06T08:03:14;11.25;;;6.05;;
59824;SDS011;45703;50.898;6.054;2023-04-06T08:05:42;15.05;;;6.75;;
59824;SDS011;45703;50.898;6.054;2023-04-06T08:08:08;14.00;;;6.28;;
59824;SDS011;45703;50.898;6.054;2023-04-06T08:10:35;11.02;;;5.47;;
59824;SDS011;45703;50.898;6.054;2023-04-06T08:13:00;14.77;;;6.43;;
59824;SDS011;45703;50.898;6.054;2023-04-06T08:15:26;13.13;;;6.20;;
59824;SDS011;45703;50.898;6.054;2023-04-06T08:17:51;13.55;;;6.28;;
59824;SDS011;45703;50.898;6.054;2023-04-06T08:20:17;15.45;;;7.75;;
59824;SDS011;45703;50.898;6.054;2023-04-06T08:22:43;13.38;;;6.32;;
59824;SDS011;45703;50.898;6.054;2023-04-06T08:25:08;11.77;;;5.70;;
59824;SDS011;45703;50.898;6.054;2023-04-06T08:27:34;13.07;;;6.65;;
59824;SDS011;45703;50.898;6.054;2023-04-06T08:29:59;17.38;;;8.45;;
59824;SDS011;45703;50.898;6.054;2023-04-06T08:32:25;15.13;;;7.72;;
59824;SDS011;45703;50.898;6.054;2023-04-06T08:34:52;15.98;;;8.02;;
59824;SDS011;45703;50.898;6.054;2023-04-06T08:37:19;16.23;;;7.85;;
59824;SDS011;45703;50.898;6.054;2023-04-06T08:39:44;16.58;;;7.63;;
59824;SDS011;45703;50.898;6.054;2023-04-06T08:42:16;14.25;;;7.57;;
59824;SDS011;45703;50.898;6.054;2023-04-06T08:44:44;14.13;;;7.15;;
59824;SDS011;45703;50.898;6.054;2023-04-06T08:47:11;19.60;;;8.00;;
59824;SDS011;45703;50.898;6.054;2023-04-06T08:49:37;17.85;;;7.90;;
59824;SDS011;45703;50.898;6.054;2023-04-06T08:52:05;16.25;;;8.45;;
59824;SDS011;45703;50.898;6.054;2023-04-06T08:54:32;15.60;;;7.50;;
59824;SDS011;45703;50.898;6.054;2023-04-06T08:56:58;15.85;;;8.10;;
59824;SDS011;45703;50.898;6.054;2023-04-06T08:59:24;14.90;;;7.50;;
59824;SDS011;45703;50.898;6.054;2023-04-06T09:01:50;16.50;;;7.50;;
59824;SDS011;45703;50.898;6.054;2023-04-06T09:04:16;16.67;;;8.20;;
59824;SDS011;45703;50.898;6.054;2023-04-06T09:06:42;15.73;;;7.90;;
59824;SDS011;45703;50.898;6.054;2023-04-06T09:09:08;16.60;;;7.53;;
59824;SDS011;45703;50.898;6.054;2023-04-06T09:14:12;16.33;;;7.10;;
59824;SDS011;45703;50.898;6.054;2023-04-06T09:16:38;16.83;;;7.07;;
59824;SDS011;45703;50.898;6.054;2023-04-06T09:19:08;16.77;;;7.65;;
59824;SDS011;45703;50.898;6.054;2023-04-06T09:21:34;15.38;;;6.60;;
59824;SDS011;45703;50.898;6.054;2023-04-06T09:24:01;15.95;;;8.15;;
59824;SDS011;45703;50.898;6.054;2023-04-06T09:26:27;14.35;;;6.95;;
59824;SDS011;45703;50.898;6.054;2023-04-06T09:28:54;18.08;;;8.23;;
59824;SDS011;45703;50.898;6.054;2023-04-06T09:31:38;17.08;;;8.27;;
59824;SDS011;45703;50.898;6.054;2023-04-06T09:34:03;14.98;;;7.50;;
59824;SDS011;45703;50.898;6.054;2023-04-06T09:36:35;16.65;;;8.23;;
59824;SDS011;45703;50.898;6.054;2023-04-06T09:39:06;15.85;;;7.80;;
59824;SDS011;45703;50.898;6.054;2023-04-06T09:41:33;15.90;;;8.25;;
59824;SDS011;45703;50.898;6.054;2023-04-06T09:46:30;17.70;;;9.13;;
59824;SDS011;45703;50.898;6.054;2023-04-06T09:49:06;17.98;;;8.40;;
59824;SDS011;45703;50.898;6.054;2023-04-06T09:51:37;17.98;;;8.63;;
59824;SDS011;45703;50.898;6.054;2023-04-06T09:56:31;17.17;;;7.68;;
59824;SDS011;45703;50.898;6.054;2023-04-06T09:59:05;15.93;;;7.45;;
59824;SDS011;45703;50.898;6.054;2023-04-06T10:01:36;15.10;;;7.18;;
59824;SDS011;45703;50.898;6.054;2023-04-06T10:04:21;16.45;;;7.97;;
59824;SDS011;45703;50.898;6.054;2023-04-06T10:07:07;13.85;;;7.65;;
59824;SDS011;45703;50.898;6.054;2023-04-06T10:09:34;14.07;;;6.88;;
59824;SDS011;45703;50.898;6.054;2023-04-06T10:12:03;13.30;;;6.95;;
59824;SDS011;45703;50.898;6.054;2023-04-06T10:14:30;13.63;;;6.68;;
59824;SDS011;45703;50.898;6.054;2023-04-06T10:16:58;12.13;;;5.78;;
59824;SDS011;45703;50.898;6.054;2023-04-06T10:19:26;12.35;;;5.97;;
59824;SDS011;45703;50.898;6.054;2023-04-06T10:21:57;12.32;;;5.60;;
59824;SDS011;45703;50.898;6.054;2023-04-06T10:24:23;13.52;;;5.72;;
59824;SDS011;45703;50.898;6.054;2023-04-06T10:27:02;13.10;;;6.88;;
59824;SDS011;45703;50.898;6.054;2023-04-06T10:29:28;11.93;;;6.18;;
59824;SDS011;45703;50.898;6.054;2023-04-06T10:32:05;16.55;;;6.90;;
59824;SDS011;45703;50.898;6.054;2023-04-06T10:34:34;14.18;;;6.22;;
59824;SDS011;45703;50.898;6.054;2023-04-06T10:37:10;15.30;;;7.03;;
59824;SDS011;45703;50.898;6.054;2023-04-06T10:39:36;14.98;;;7.85;;
59824;SDS011;45703;50.898;6.054;2023-04-06T10:42:36;13.93;;;7.10;;
59824;SDS011;45703;50.898;6.054;2023-04-06T10:45:06;13.85;;;6.57;;
59824;SDS011;45703;50.898;6.054;2023-04-06T10:47:39;13.88;;;6.50;;
59824;SDS011;45703;50.898;6.054;2023-04-06T10:50:05;13.02;;;6.93;;
59824;SDS011;45703;50.898;6.054;2023-04-06T10:52:31;11.90;;;6.38;;
59824;SDS011;45703;50.898;6.054;2023-04-06T10:54:56;13.63;;;6.60;;
59824;SDS011;45703;50.898;6.054;2023-04-06T10:57:29;12.88;;;6.38;;
59824;SDS011;45703;50.898;6.054;2023-04-06T10:59:55;11.45;;;5.85;;
59824;SDS011;45703;50.898;6.054;2023-04-06T11:02:21;13.02;;;6.97;;
59824;SDS011;45703;50.898;6.054;2023-04-06T11:04:53;13.23;;;6.68;;
59824;SDS011;45703;50.898;6.054;2023-04-06T11:07:22;11.43;;;6.20;;
59824;SDS011;45703;50.898;6.054;2023-04-06T11:09:50;12.48;;;5.93;;
59824;SDS011;45703;50.898;6.054;2023-04-06T11:12:22;12.13;;;6.07;;
59824;SDS011;45703;50.898;6.054;2023-04-06T11:14:59;11.65;;;5.50;;
59824;SDS011;45703;50.898;6.054;2023-04-06T11:17:33;10.85;;;5.00;;
59824;SDS011;45703;50.898;6.054;2023-04-06T11:20:01;11.05;;;4.85;;
59824;SDS011;45703;50.898;6.054;2023-04-06T11:22:27;11.35;;;5.35;;
59824;SDS011;45703;50.898;6.054;2023-04-06T11:25:04;11.00;;;4.63;;
59824;SDS011;45703;50.898;6.054;2023-04-06T11:27:30;11.30;;;5.13;;
59824;SDS011;45703;50.898;6.054;2023-04-06T11:29:57;12.13;;;5.75;;
59824;SDS011;45703;50.898;6.054;2023-04-06T11:32:24;12.27;;;5.35;;
59824;SDS011;45703;50.898;6.054;2023-04-06T11:34:49;13.18;;;6.65;;
59824;SDS011;45703;50.898;6.054;2023-04-06T11:37:15;12.15;;;5.90;;
59824;SDS011;45703;50.898;6.054;2023-04-06T11:39:43;11.95;;;5.80;;
59824;SDS011;45703;50.898;6.054;2023-04-06T11:42:28;13.18;;;6.63;;
59824;SDS011;45703;50.898;6.054;2023-04-06T11:45:03;12.68;;;6.53;;
59824;SDS011;45703;50.898;6.054;2023-04-06T11:47:30;11.85;;;5.88;;
59824;SDS011;45703;50.898;6.054;2023-04-06T11:50:07;12.70;;;6.80;;
59824;SDS011;45703;50.898;6.054;2023-04-06T11:52:33;14.23;;;6.95;;
59824;SDS011;45703;50.898;6.054;2023-04-06T11:55:09;14.23;;;6.38;;
59824;SDS011;45703;50.898;6.054;2023-04-06T11:57:36;12.77;;;6.65;;
59824;SDS011;45703;50.898;6.054;2023-04-06T12:00:01;13.00;;;6.97;;
59824;SDS011;45703;50.898;6.054;2023-04-06T12:02:27;13.85;;;7.45;;
59824;SDS011;45703;50.898;6.054;2023-04-06T12:04:53;14.10;;;7.03;;
59824;SDS011;45703;50.898;6.054;2023-04-06T12:07:18;14.75;;;7.32;;
59824;SDS011;45703;50.898;6.054;2023-04-06T12:09:44;13.00;;;6.88;;
59824;SDS011;45703;50.898;6.054;2023-04-06T12:12:09;13.77;;;6.72;;
59824;SDS011;45703;50.898;6.054;2023-04-06T12:14:35;12.38;;;6.22;;
59824;SDS011;45703;50.898;6.054;2023-04-06T12:17:00;13.10;;;6.78;;
59824;SDS011;45703;50.898;6.054;2023-04-06T12:19:26;13.43;;;6.82;;
59824;SDS011;45703;50.898;6.054;2023-04-06T12:21:52;12.93;;;7.20;;
59824;SDS011;45703;50.898;6.054;2023-04-06T12:24:18;12.63;;;6.65;;
59824;SDS011;45703;50.898;6.054;2023-04-06T12:26:44;13.18;;;6.57;;
59824;SDS011;45703;50.898;6.054;2023-04-06T12:29:10;10.95;;;6.20;;
59824;SDS011;45703;50.898;6.054;2023-04-06T12:31:38;12.68;;;7.22;;
59824;SDS011;45703;50.898;6.054;2023-04-06T12:34:05;11.52;;;6.65;;
59824;SDS011;45703;50.898;6.054;2023-04-06T12:36:31;13.40;;;7.10;;
59824;SDS011;45703;50.898;6.054;2023-04-06T12:38:57;15.70;;;7.57;;
59824;SDS011;45703;50.898;6.054;2023-04-06T12:41:23;13.40;;;7.10;;
59824;SDS011;45703;50.898;6.054;2023-04-06T12:43:49;13.63;;;7.57;;
59824;SDS011;45703;50.898;6.054;2023-04-06T12:46:16;13.80;;;7.30;;
59824;SDS011;45703;50.898;6.054;2023-04-06T12:48:42;14.60;;;7.72;;
59824;SDS011;45703;50.898;6.054;2023-04-06T12:51:07;12.32;;;6.82;;
59824;SDS011;45703;50.898;6.054;2023-04-06T12:53:33;13.45;;;7.07;;
59824;SDS011;45703;50.898;6.054;2023-04-06T12:55:59;14.85;;;7.40;;
59824;SDS011;45703;50.898;6.054;2023-04-06T12:58:26;14.15;;;7.80;;
59824;SDS011;45703;50.898;6.054;2023-04-06T13:00:52;12.75;;;7.25;;
59824;SDS011;45703;50.898;6.054;2023-04-06T13:03:18;11.35;;;6.13;;
59824;SDS011;45703;50.898;6.054;2023-04-06T13:05:49;11.70;;;6.00;;
59824;SDS011;45703;50.898;6.054;2023-04-06T13:08:16;11.23;;;5.97;;
59824;SDS011;45703;50.898;6.054;2023-04-06T13:10:52;11.32;;;5.93;;
59824;SDS011;45703;50.898;6.054;2023-04-06T13:13:21;11.93;;;5.93;;
59824;SDS011;45703;50.898;6.054;2023-04-06T13:15:53;10.45;;;4.85;;
59824;SDS011;45703;50.898;6.054;2023-04-06T13:18:23;12.20;;;5.97;;
59824;SDS011;45703;50.898;6.054;2023-04-06T13:20:48;11.63;;;5.20;;
59824;SDS011;45703;50.898;6.054;2023-04-06T13:23:14;10.20;;;5.30;;
59824;SDS011;45703;50.898;6.054;2023-04-06T13:25:40;10.90;;;5.22;;
59824;SDS011;45703;50.898;6.054;2023-04-06T13:28:05;10.55;;;5.07;;
59824;SDS011;45703;50.898;6.054;2023-04-06T13:30:31;10.63;;;4.68;;
59824;SDS011;45703;50.898;6.054;2023-04-06T13:32:56;10.60;;;5.40;;
59824;SDS011;45703;50.898;6.054;2023-04-06T13:35:21;11.02;;;5.35;;
59824;SDS011;45703;50.898;6.054;2023-04-06T13:37:47;9.93;;;4.95;;
59824;SDS011;45703;50.898;6.054;2023-04-06T13:40:13;10.02;;;4.80;;
59824;SDS011;45703;50.898;6.054;2023-04-06T13:42:39;9.40;;;4.38;;
59824;SDS011;45703;50.898;6.054;2023-04-06T13:45:06;9.20;;;4.43;;
59824;SDS011;45703;50.898;6.054;2023-04-06T13:47:32;10.38;;;4.50;;
59824;SDS011;45703;50.898;6.054;2023-04-06T13:49:59;10.10;;;4.88;;
59824;SDS011;45703;50.898;6.054;2023-04-06T13:52:28;9.02;;;4.45;;
59824;SDS011;45703;50.898;6.054;2023-04-06T13:54:54;9.90;;;4.63;;
59824;SDS011;45703;50.898;6.054;2023-04-06T13:57:20;10.60;;;4.63;;
59824;SDS011;45703;50.898;6.054;2023-04-06T13:59:45;9.82;;;4.63;;
59824;SDS011;45703;50.898;6.054;2023-04-06T14:02:11;9.02;;;4.38;;
59824;SDS011;45703;50.898;6.054;2023-04-06T14:04:36;8.85;;;4.35;;
59824;SDS011;45703;50.898;6.054;2023-04-06T14:07:02;9.15;;;4.00;;
59824;SDS011;45703;50.898;6.054;2023-04-06T14:09:28;8.48;;;4.18;;
59824;SDS011;45703;50.898;6.054;2023-04-06T14:11:54;8.57;;;4.32;;
59824;SDS011;45703;50.898;6.054;2023-04-06T14:14:20;10.80;;;4.70;;
59824;SDS011;45703;50.898;6.054;2023-04-06T14:16:47;9.45;;;4.55;;
59824;SDS011;45703;50.898;6.054;2023-04-06T14:19:15;8.93;;;4.15;;
59824;SDS011;45703;50.898;6.054;2023-04-06T14:21:42;9.02;;;4.47;;
59824;SDS011;45703;50.898;6.054;2023-04-06T14:24:09;9.57;;;4.72;;
59824;SDS011;45703;50.898;6.054;2023-04-06T14:26:36;8.63;;;4.25;;
59824;SDS011;45703;50.898;6.054;2023-04-06T14:29:05;8.98;;;4.10;;
59824;SDS011;45703;50.898;6.054;2023-04-06T14:31:31;7.97;;;3.63;;
59824;SDS011;45703;50.898;6.054;2023-04-06T14:33:57;8.32;;;4.07;;
59824;SDS011;45703;50.898;6.054;2023-04-06T14:36:23;8.13;;;3.65;;
59824;SDS011;45703;50.898;6.054;2023-04-06T14:38:51;8.48;;;3.72;;
59824;SDS011;45703;50.898;6.054;2023-04-06T14:41:17;8.60;;;3.67;;